TimeEDT,TemperatureF,Dew PointF,Humidity,Sea Level PressureIn,VisibilityMPH,Wind Direction,Wind SpeedMPH,Gust SpeedMPH,PrecipitationIn,Events,Conditions,WindDirDegrees,DateUTC
12:53 AM,78.1,71.1,79,30.10,10.0,East,6.9,-,N/A,,Overcast,100,2013-06-16 04:53:00
1:53 AM,78.1,72.0,81,30.09,10.0,ESE,6.9,-,N/A,,Overcast,110,2013-06-16 05:53:00
2:53 AM,78.1,72.0,81,30.09,10.0,East,4.6,-,N/A,,Overcast,80,2013-06-16 06:53:00
3:53 AM,78.1,72.0,81,30.08,10.0,East,5.8,-,N/A,,Overcast,90,2013-06-16 07:53:00
4:53 AM,78.1,72.0,81,30.08,10.0,East,4.6,-,N/A,,Overcast,80,2013-06-16 08:53:00
5:37 AM,78.8,71.6,78,30.09,10.0,ENE,5.8,-,N/A,,Overcast,70,2013-06-16 09:37:00
5:53 AM,78.1,72.0,81,30.10,10.0,NE,4.6,-,N/A,,Overcast,40,2013-06-16 09:53:00
6:53 AM,75.9,73.0,91,30.10,10.0,Calm,Calm,-,0.05,,Overcast,0,2013-06-16 10:53:00
7:26 AM,77.0,73.4,89,30.10,10.0,East,5.8,-,N/A,,Overcast,100,2013-06-16 11:26:00
7:53 AM,77.0,73.0,88,30.10,10.0,East,5.8,-,N/A,,Overcast,80,2013-06-16 11:53:00
8:53 AM,80.1,73.9,81,30.12,10.0,East,5.8,-,N/A,,Overcast,90,2013-06-16 12:53:00
9:53 AM,82.9,75.0,77,30.12,10.0,SE,8.1,-,N/A,,Mostly Cloudy,130,2013-06-16 13:53:00
10:53 AM,82.9,73.9,74,30.11,10.0,ESE,5.8,-,N/A,,Overcast,120,2013-06-16 14:53:00
11:53 AM,84.9,75.0,72,30.11,10.0,SSE,4.6,-,N/A,,Clear,150,2013-06-16 15:53:00
12:53 PM,86.0,73.9,67,30.10,10.0,SE,4.6,-,N/A,,Overcast,140,2013-06-16 16:53:00
1:53 PM,88.0,73.0,61,30.09,10.0,Variable,4.6,-,N/A,,Partly Cloudy,0,2013-06-16 17:53:00
2:53 PM,89.1,73.9,61,30.06,10.0,SSW,4.6,-,N/A,,Clear,200,2013-06-16 18:53:00
3:53 PM,88.0,75.9,67,30.05,10.0,East,9.2,-,N/A,,Partly Cloudy,80,2013-06-16 19:53:00
4:53 PM,86.0,75.0,70,30.04,10.0,East,10.4,-,0.00,,Mostly Cloudy,100,2013-06-16 20:53:00
5:53 PM,84.9,73.9,69,30.05,10.0,East,12.7,-,N/A,,Partly Cloudy,100,2013-06-16 21:53:00
6:53 PM,82.9,73.9,74,30.05,10.0,East,8.1,-,N/A,,Overcast,100,2013-06-16 22:53:00
7:21 PM,80.6,75.2,84,30.06,7.0,East,10.4,-,0.02,Rain,Light Rain,100,2013-06-16 23:21:00
7:53 PM,81.0,75.9,85,30.06,10.0,East,8.1,-,0.02,,Scattered Clouds,100,2013-06-16 23:53:00
8:53 PM,81.0,75.0,82,30.07,10.0,ESE,10.4,-,N/A,,Overcast,110,2013-06-17 00:53:00
9:08 PM,80.6,75.2,84,30.08,8.0,ESE,10.4,-,0.00,Rain-Thunderstorm,Light Rain,120,2013-06-17 01:08:00
9:24 PM,78.8,75.2,89,30.09,10.0,East,9.2,-,0.00,Rain,Light Rain,90,2013-06-17 01:24:00
9:53 PM,79.0,75.9,90,30.09,10.0,ENE,5.8,-,0.00,,Overcast,70,2013-06-17 01:53:00
10:48 PM,78.8,75.2,89,30.11,4.0,East,6.9,-,0.05,Rain-Thunderstorm,Light Rain,100,2013-06-17 02:48:00
10:53 PM,79.0,75.9,90,30.11,5.0,SE,8.1,-,0.05,Rain-Thunderstorm,Light Rain,140,2013-06-17 02:53:00
11:01 PM,78.8,75.2,89,30.12,1.8,SE,5.8,-,0.15,Rain-Thunderstorm,Heavy Rain,130,2013-06-17 03:01:00
11:09 PM,78.8,75.2,89,30.12,1.2,East,4.6,-,0.30,Rain-Thunderstorm,Heavy Thunderstorms and Rain,80,2013-06-17 03:09:00
11:14 PM,78.8,75.2,89,30.11,2.0,ENE,4.6,-,0.32,Rain-Thunderstorm,Heavy Thunderstorms and Rain,70,2013-06-17 03:14:00
11:23 PM,77.0,75.2,94,30.12,4.0,Calm,Calm,-,0.33,Rain-Thunderstorm,Thunderstorms and Rain,0,2013-06-17 03:23:00
11:29 PM,78.8,75.2,89,30.11,4.0,NE,3.5,-,0.35,Rain-Thunderstorm,Thunderstorms and Rain,40,2013-06-17 03:29:00
11:53 PM,78.1,75.9,93,30.10,7.0,East,6.9,-,0.37,Rain-Thunderstorm,Light Thunderstorms and Rain,100,2013-06-17 03:53:00